sensor_id;sensor_type;location;lat;lon;timestamp;P1;durP1;ratioP1;P2;durP2;ratioP2
23712;SDS011;12035;49.978;8.298;2023-04-25T00:04:57;4.60;;;2.13;;
23712;SDS011;12035;49.978;8.298;2023-04-25T00:15:53;2.80;;;2.03;;
23712;SDS011;12035;49.978;8.298;2023-04-25T00:20:53;3.13;;;1.85;;
23712;SDS011;12035;49.978;8.298;2023-04-25T00:26:12;3.75;;;2.25;;
23712;SDS011;12035;49.978;8.298;2023-04-25T00:31:56;2.40;;;1.88;;
23712;SDS011;12035;49.978;8.298;2023-04-25T00:37:08;3.28;;;2.17;;
23712;SDS011;12035;49.978;8.298;2023-04-25T00:42:25;3.17;;;2.17;;
23712;SDS011;12035;49.978;8.298;2023-04-25T00:47:38;2.92;;;1.77;;
23712;SDS011;12035;49.978;8.298;2023-04-25T00:52:53;4.05;;;2.10;;
23712;SDS011;12035;49.978;8.298;2023-04-25T00:58:02;2.63;;;1.92;;
23712;SDS011;12035;49.978;8.298;2023-04-25T01:08:35;2.70;;;1.77;;
23712;SDS011;12035;49.978;8.298;2023-04-25T01:20:56;3.20;;;1.98;;
23712;SDS011;12035;49.978;8.298;2023-04-25T01:26:45;3.47;;;2.00;;
23712;SDS011;12035;49.978;8.298;2023-04-25T01:31:55;4.60;;;1.98;;
23712;SDS011;12035;49.978;8.298;2023-04-25T01:37:15;4.32;;;1.95;;
23712;SDS011;12035;49.978;8.298;2023-04-25T01:42:24;3.35;;;2.08;;
23712;SDS011;12035;49.978;8.298;2023-04-25T01:47:29;2.67;;;1.88;;
23712;SDS011;12035;49.978;8.298;2023-04-25T01:52:37;3.67;;;2.20;;
23712;SDS011;12035;49.978;8.298;2023-04-25T01:57:41;3.17;;;1.98;;
23712;SDS011;12035;49.978;8.298;2023-04-25T02:02:48;2.45;;;1.95;;
23712;SDS011;12035;49.978;8.298;2023-04-25T02:07:55;3.45;;;2.20;;
23712;SDS011;12035;49.978;8.298;2023-04-25T02:13:08;4.30;;;1.90;;
23712;SDS011;12035;49.978;8.298;2023-04-25T02:18:32;4.60;;;2.33;;
23712;SDS011;12035;49.978;8.298;2023-04-25T02:23:57;3.50;;;2.38;;
23712;SDS011;12035;49.978;8.298;2023-04-25T02:29:19;3.30;;;2.30;;
23712;SDS011;12035;49.978;8.298;2023-04-25T02:39:28;3.60;;;2.13;;
23712;SDS011;12035;49.978;8.298;2023-04-25T02:44:44;3.95;;;2.25;;
23712;SDS011;12035;49.978;8.298;2023-04-25T02:49:49;4.75;;;2.22;;
23712;SDS011;12035;49.978;8.298;2023-04-25T02:54:56;4.22;;;2.50;;
23712;SDS011;12035;49.978;8.298;2023-04-25T02:59:59;4.75;;;2.50;;
23712;SDS011;12035;49.978;8.298;2023-04-25T03:05:07;3.80;;;2.63;;
23712;SDS011;12035;49.978;8.298;2023-04-25T03:10:23;4.15;;;2.50;;
23712;SDS011;12035;49.978;8.298;2023-04-25T03:15:24;3.72;;;2.72;;
23712;SDS011;12035;49.978;8.298;2023-04-25T03:20:49;4.10;;;2.67;;
23712;SDS011;12035;49.978;8.298;2023-04-25T03:31:09;5.68;;;2.80;;
23712;SDS011;12035;49.978;8.298;2023-04-25T03:36:29;4.85;;;3.03;;
23712;SDS011;12035;49.978;8.298;2023-04-25T03:41:31;5.03;;;3.05;;
23712;SDS011;12035;49.978;8.298;2023-04-25T03:46:36;7.22;;;3.33;;
23712;SDS011;12035;49.978;8.298;2023-04-25T03:51:49;5.40;;;3.63;;
23712;SDS011;12035;49.978;8.298;2023-04-25T03:57:19;7.13;;;3.60;;
23712;SDS011;12035;49.978;8.298;2023-04-25T04:02:30;5.90;;;3.88;;
23712;SDS011;12035;49.978;8.298;2023-04-25T04:07:34;8.60;;;4.82;;
23712;SDS011;12035;49.978;8.298;2023-04-25T04:12:37;7.45;;;4.43;;
23712;SDS011;12035;49.978;8.298;2023-04-25T04:17:39;10.00;;;4.55;;
23712;SDS011;12035;49.978;8.298;2023-04-25T04:22:43;7.18;;;4.00;;
23712;SDS011;12035;49.978;8.298;2023-04-25T04:28:26;7.73;;;4.43;;
23712;SDS011;12035;49.978;8.298;2023-04-25T04:33:44;7.20;;;3.58;;
23712;SDS011;12035;49.978;8.298;2023-04-25T04:38:47;8.57;;;3.75;;
23712;SDS011;12035;49.978;8.298;2023-04-25T04:43:51;10.48;;;3.55;;
23712;SDS011;12035;49.978;8.298;2023-04-25T04:48:58;8.27;;;3.15;;
23712;SDS011;12035;49.978;8.298;2023-04-25T04:54:11;7.55;;;3.83;;
23712;SDS011;12035;49.978;8.298;2023-04-25T04:59:19;6.88;;;3.10;;
23712;SDS011;12035;49.978;8.298;2023-04-25T05:04:20;7.53;;;2.83;;
23712;SDS011;12035;49.978;8.298;2023-04-25T05:09:33;8.25;;;2.60;;
23712;SDS011;12035;49.978;8.298;2023-04-25T05:14:35;11.73;;;3.22;;
23712;SDS011;12035;49.978;8.298;2023-04-25T05:19:38;6.70;;;3.28;;
23712;SDS011;12035;49.978;8.298;2023-04-25T05:24:37;9.00;;;3.47;;
23712;SDS011;12035;49.978;8.298;2023-04-25T05:29:54;6.53;;;3.40;;
23712;SDS011;12035;49.978;8.298;2023-04-25T05:35:22;6.07;;;2.58;;
23712;SDS011;12035;49.978;8.298;2023-04-25T05:40:19;8.70;;;3.15;;
23712;SDS011;12035;49.978;8.298;2023-04-25T05:45:19;6.93;;;2.88;;
23712;SDS011;12035;49.978;8.298;2023-04-25T05:55:46;10.02;;;3.10;;
23712;SDS011;12035;49.978;8.298;2023-04-25T06:01:01;6.35;;;2.70;;
23712;SDS011;12035;49.978;8.298;2023-04-25T06:06:11;9.50;;;2.55;;
23712;SDS011;12035;49.978;8.298;2023-04-25T06:11:31;8.02;;;2.40;;
23712;SDS011;12035;49.978;8.298;2023-04-25T06:23:15;7.00;;;2.75;;
23712;SDS011;12035;49.978;8.298;2023-04-25T06:28:32;5.30;;;2.22;;
23712;SDS011;12035;49.978;8.298;2023-04-25T06:33:41;8.45;;;2.90;;
23712;SDS011;12035;49.978;8.298;2023-04-25T06:38:46;7.57;;;2.85;;
23712;SDS011;12035;49.978;8.298;2023-04-25T06:49:30;4.95;;;2.53;;
23712;SDS011;12035;49.978;8.298;2023-04-25T06:54:30;6.93;;;2.70;;
23712;SDS011;12035;49.978;8.298;2023-04-25T06:59:37;5.65;;;2.30;;
23712;SDS011;12035;49.978;8.298;2023-04-25T07:04:41;7.13;;;2.45;;
23712;SDS011;12035;49.978;8.298;2023-04-25T07:09:43;6.55;;;2.40;;
23712;SDS011;12035;49.978;8.298;2023-04-25T07:14:50;6.47;;;2.20;;
23712;SDS011;12035;49.978;8.298;2023-04-25T07:19:52;7.03;;;2.45;;
23712;SDS011;12035;49.978;8.298;2023-04-25T07:24:58;5.65;;;2.13;;
23712;SDS011;12035;49.978;8.298;2023-04-25T07:30:03;5.85;;;2.38;;
23712;SDS011;12035;49.978;8.298;2023-04-25T07:35:07;6.22;;;2.58;;
23712;SDS011;12035;49.978;8.298;2023-04-25T07:40:06;4.82;;;2.22;;
23712;SDS011;12035;49.978;8.298;2023-04-25T07:45:05;4.85;;;2.20;;
23712;SDS011;12035;49.978;8.298;2023-04-25T07:50:07;5.45;;;1.80;;
23712;SDS011;12035;49.978;8.298;2023-04-25T07:55:06;4.95;;;1.73;;
23712;SDS011;12035;49.978;8.298;2023-04-25T08:00:05;3.40;;;1.40;;
23712;SDS011;12035;49.978;8.298;2023-04-25T08:05:07;6.30;;;1.45;;
23712;SDS011;12035;49.978;8.298;2023-04-25T08:10:07;5.13;;;1.40;;
23712;SDS011;12035;49.978;8.298;2023-04-25T08:15:05;4.30;;;1.38;;
23712;SDS011;12035;49.978;8.298;2023-04-25T08:20:04;4.85;;;1.50;;
23712;SDS011;12035;49.978;8.298;2023-04-25T08:25:05;5.75;;;1.60;;
23712;SDS011;12035;49.978;8.298;2023-04-25T08:30:03;3.10;;;1.13;;
23712;SDS011;12035;49.978;8.298;2023-04-25T08:35:03;3.00;;;1.40;;
23712;SDS011;12035;49.978;8.298;2023-04-25T08:40:03;2.67;;;1.10;;
23712;SDS011;12035;49.978;8.298;2023-04-25T08:45:02;3.53;;;0.90;;
23712;SDS011;12035;49.978;8.298;2023-04-25T08:50:02;3.50;;;1.20;;
23712;SDS011;12035;49.978;8.298;2023-04-25T08:55:03;3.70;;;1.27;;
23712;SDS011;12035;49.978;8.298;2023-04-25T09:00:04;3.13;;;1.08;;
23712;SDS011;12035;49.978;8.298;2023-04-25T09:05:03;5.97;;;1.25;;
23712;SDS011;12035;49.978;8.298;2023-04-25T09:10:06;3.88;;;1.60;;
23712;SDS011;12035;49.978;8.298;2023-04-25T09:15:04;6.10;;;1.40;;
23712;SDS011;12035;49.978;8.298;2023-04-25T09:20:07;4.15;;;1.30;;
23712;SDS011;12035;49.978;8.298;2023-04-25T09:25:11;3.42;;;1.45;;
23712;SDS011;12035;49.978;8.298;2023-04-25T09:30:10;3.25;;;1.92;;
23712;SDS011;12035;49.978;8.298;2023-04-25T09:35:09;3.58;;;1.77;;
23712;SDS011;12035;49.978;8.298;2023-04-25T09:40:06;5.22;;;1.88;;
23712;SDS011;12035;49.978;8.298;2023-04-25T09:45:07;5.32;;;1.70;;
23712;SDS011;12035;49.978;8.298;2023-04-25T09:50:13;3.50;;;1.90;;
23712;SDS011;12035;49.978;8.298;2023-04-25T09:55:11;5.30;;;2.38;;
23712;SDS011;12035;49.978;8.298;2023-04-25T10:00:11;6.63;;;2.20;;
23712;SDS011;12035;49.978;8.298;2023-04-25T10:05:12;5.43;;;2.72;;
23712;SDS011;12035;49.978;8.298;2023-04-25T10:10:11;6.80;;;2.72;;
23712;SDS011;12035;49.978;8.298;2023-04-25T10:15:11;5.07;;;2.53;;
23712;SDS011;12035;49.978;8.298;2023-04-25T10:20:10;4.53;;;2.20;;
23712;SDS011;12035;49.978;8.298;2023-04-25T10:25:08;5.95;;;2.25;;
23712;SDS011;12035;49.978;8.298;2023-04-25T10:30:08;3.20;;;2.13;;
23712;SDS011;12035;49.978;8.298;2023-04-25T10:35:13;8.05;;;2.90;;
23712;SDS011;12035;49.978;8.298;2023-04-25T10:40:12;6.40;;;2.28;;
23712;SDS011;12035;49.978;8.298;2023-04-25T10:45:12;5.47;;;2.20;;
23712;SDS011;12035;49.978;8.298;2023-04-25T10:50:11;5.10;;;2.45;;
23712;SDS011;12035;49.978;8.298;2023-04-25T10:55:10;5.07;;;2.30;;
23712;SDS011;12035;49.978;8.298;2023-04-25T11:00:09;4.70;;;2.20;;
23712;SDS011;12035;49.978;8.298;2023-04-25T11:05:14;7.05;;;2.35;;
23712;SDS011;12035;49.978;8.298;2023-04-25T11:10:19;3.10;;;1.77;;
23712;SDS011;12035;49.978;8.298;2023-04-25T11:15:29;5.32;;;2.22;;
23712;SDS011;12035;49.978;8.298;2023-04-25T11:20:26;5.35;;;1.70;;
23712;SDS011;12035;49.978;8.298;2023-04-25T11:25:24;4.97;;;2.40;;
23712;SDS011;12035;49.978;8.298;2023-04-25T11:30:23;6.78;;;2.20;;
23712;SDS011;12035;49.978;8.298;2023-04-25T11:35:23;9.25;;;2.05;;
23712;SDS011;12035;49.978;8.298;2023-04-25T11:40:20;9.25;;;2.08;;
23712;SDS011;12035;49.978;8.298;2023-04-25T11:45:17;6.82;;;2.08;;
23712;SDS011;12035;49.978;8.298;2023-04-25T11:50:14;7.80;;;2.00;;
23712;SDS011;12035;49.978;8.298;2023-04-25T11:55:14;6.88;;;2.08;;
23712;SDS011;12035;49.978;8.298;2023-04-25T12:00:13;4.75;;;1.83;;
23712;SDS011;12035;49.978;8.298;2023-04-25T12:05:12;4.07;;;1.70;;
23712;SDS011;12035;49.978;8.298;2023-04-25T12:10:12;6.60;;;1.80;;
23712;SDS011;12035;49.978;8.298;2023-04-25T12:15:15;4.18;;;1.65;;
23712;SDS011;12035;49.978;8.298;2023-04-25T12:20:16;5.85;;;1.60;;
23712;SDS011;12035;49.978;8.298;2023-04-25T12:30:38;5.20;;;1.85;;
23712;SDS011;12035;49.978;8.298;2023-04-25T12:35:52;5.75;;;2.20;;
23712;SDS011;12035;49.978;8.298;2023-04-25T12:40:51;6.18;;;2.42;;
23712;SDS011;12035;49.978;8.298;2023-04-25T12:45:48;5.35;;;1.85;;
23712;SDS011;12035;49.978;8.298;2023-04-25T12:50:46;6.25;;;1.90;;
23712;SDS011;12035;49.978;8.298;2023-04-25T12:55:44;5.30;;;1.83;;
23712;SDS011;12035;49.978;8.298;2023-04-25T13:00:44;4.70;;;1.50;;
23712;SDS011;12035;49.978;8.298;2023-04-25T13:05:42;6.13;;;1.85;;
23712;SDS011;12035;49.978;8.298;2023-04-25T13:10:39;4.70;;;1.70;;
23712;SDS011;12035;49.978;8.298;2023-04-25T13:15:37;7.22;;;1.88;;
23712;SDS011;12035;49.978;8.298;2023-04-25T13:20:37;6.13;;;1.77;;
23712;SDS011;12035;49.978;8.298;2023-04-25T13:25:34;5.88;;;1.50;;
23712;SDS011;12035;49.978;8.298;2023-04-25T13:30:31;4.72;;;1.20;;
23712;SDS011;12035;49.978;8.298;2023-04-25T13:35:28;3.60;;;1.30;;
23712;SDS011;12035;49.978;8.298;2023-04-25T13:40:28;4.15;;;1.50;;
23712;SDS011;12035;49.978;8.298;2023-04-25T13:45:25;3.60;;;1.35;;
23712;SDS011;12035;49.978;8.298;2023-04-25T13:50:23;4.00;;;1.67;;
23712;SDS011;12035;49.978;8.298;2023-04-25T13:55:20;3.35;;;1.27;;
23712;SDS011;12035;49.978;8.298;2023-04-25T14:00:20;4.60;;;1.38;;
23712;SDS011;12035;49.978;8.298;2023-04-25T14:05:17;6.68;;;1.27;;
23712;SDS011;12035;49.978;8.298;2023-04-25T14:10:14;5.53;;;1.60;;
23712;SDS011;12035;49.978;8.298;2023-04-25T14:15:12;5.43;;;1.60;;
23712;SDS011;12035;49.978;8.298;2023-04-25T14:20:12;4.25;;;1.38;;
23712;SDS011;12035;49.978;8.298;2023-04-25T14:25:10;4.80;;;1.35;;
23712;SDS011;12035;49.978;8.298;2023-04-25T14:30:08;5.22;;;1.23;;
23712;SDS011;12035;49.978;8.298;2023-04-25T14:35:07;7.03;;;1.70;;
23712;SDS011;12035;49.978;8.298;2023-04-25T14:40:07;4.15;;;1.52;;
23712;SDS011;12035;49.978;8.298;2023-04-25T14:45:08;3.72;;;1.42;;
23712;SDS011;12035;49.978;8.298;2023-04-25T14:50:07;4.78;;;1.30;;
23712;SDS011;12035;49.978;8.298;2023-04-25T14:55:06;4.25;;;1.83;;
23712;SDS011;12035;49.978;8.298;2023-04-25T15:00:05;4.60;;;1.30;;
23712;SDS011;12035;49.978;8.298;2023-04-25T15:05:07;5.38;;;1.52;;
23712;SDS011;12035;49.978;8.298;2023-04-25T15:10:05;6.35;;;1.50;;
23712;SDS011;12035;49.978;8.298;2023-04-25T15:15:08;4.57;;;1.48;;
23712;SDS011;12035;49.978;8.298;2023-04-25T15:20:08;3.85;;;1.33;;
23712;SDS011;12035;49.978;8.298;2023-04-25T15:25:08;7.63;;;1.42;;
23712;SDS011;12035;49.978;8.298;2023-04-25T15:30:07;3.53;;;1.38;;
23712;SDS011;12035;49.978;8.298;2023-04-25T15:35:08;4.43;;;1.23;;
23712;SDS011;12035;49.978;8.298;2023-04-25T15:40:08;3.78;;;1.23;;
23712;SDS011;12035;49.978;8.298;2023-04-25T15:45:08;4.00;;;1.33;;
23712;SDS011;12035;49.978;8.298;2023-04-25T15:50:07;6.13;;;1.30;;
23712;SDS011;12035;49.978;8.298;2023-04-25T15:55:05;5.15;;;1.42;;
23712;SDS011;12035;49.978;8.298;2023-04-25T16:00:07;5.05;;;1.40;;
23712;SDS011;12035;49.978;8.298;2023-04-25T16:05:07;6.88;;;1.17;;
23712;SDS011;12035;49.978;8.298;2023-04-25T16:10:08;3.88;;;1.25;;
23712;SDS011;12035;49.978;8.298;2023-04-25T16:15:07;4.88;;;1.33;;
23712;SDS011;12035;49.978;8.298;2023-04-25T16:20:05;2.95;;;1.00;;
23712;SDS011;12035;49.978;8.298;2023-04-25T16:25:05;3.60;;;1.20;;
23712;SDS011;12035;49.978;8.298;2023-04-25T16:30:06;3.33;;;1.00;;
23712;SDS011;12035;49.978;8.298;2023-04-25T16:35:06;6.43;;;1.20;;
23712;SDS011;12035;49.978;8.298;2023-04-25T16:40:04;4.90;;;1.20;;
23712;SDS011;12035;49.978;8.298;2023-04-25T16:45:05;3.33;;;1.17;;
23712;SDS011;12035;49.978;8.298;2023-04-25T16:50:05;5.70;;;1.30;;
23712;SDS011;12035;49.978;8.298;2023-04-25T16:55:03;4.88;;;1.10;;
23712;SDS011;12035;49.978;8.298;2023-04-25T17:00:02;5.07;;;1.08;;
23712;SDS011;12035;49.978;8.298;2023-04-25T17:05:05;3.65;;;1.20;;
23712;SDS011;12035;49.978;8.298;2023-04-25T17:10:03;3.78;;;1.08;;
23712;SDS011;12035;49.978;8.298;2023-04-25T17:15:01;6.40;;;1.17;;
23712;SDS011;12035;49.978;8.298;2023-04-25T17:20:00;5.32;;;1.27;;
23712;SDS011;12035;49.978;8.298;2023-04-25T17:24:58;4.18;;;1.58;;
23712;SDS011;12035;49.978;8.298;2023-04-25T17:29:55;5.40;;;1.70;;
23712;SDS011;12035;49.978;8.298;2023-04-25T17:34:52;5.03;;;1.58;;
23712;SDS011;12035;49.978;8.298;2023-04-25T17:39:51;4.90;;;1.25;;
23712;SDS011;12035;49.978;8.298;2023-04-25T17:44:48;4.13;;;1.10;;
23712;SDS011;12035;49.978;8.298;2023-04-25T17:49:45;4.53;;;1.20;;
23712;SDS011;12035;49.978;8.298;2023-04-25T17:54:42;3.85;;;1.20;;
23712;SDS011;12035;49.978;8.298;2023-04-25T17:59:41;2.97;;;1.00;;
23712;SDS011;12035;49.978;8.298;2023-04-25T18:04:41;3.25;;;1.10;;
23712;SDS011;12035;49.978;8.298;2023-04-25T18:09:38;3.78;;;1.13;;
23712;SDS011;12035;49.978;8.298;2023-04-25T18:14:36;5.22;;;1.35;;
23712;SDS011;12035;49.978;8.298;2023-04-25T18:19:35;3.30;;;1.27;;
23712;SDS011;12035;49.978;8.298;2023-04-25T18:24:32;4.68;;;1.30;;
23712;SDS011;12035;49.978;8.298;2023-04-25T18:29:29;3.28;;;1.30;;
23712;SDS011;12035;49.978;8.298;2023-04-25T18:34:26;3.20;;;1.10;;
23712;SDS011;12035;49.978;8.298;2023-04-25T18:39:25;4.30;;;1.42;;
23712;SDS011;12035;49.978;8.298;2023-04-25T18:44:22;3.00;;;1.50;;
23712;SDS011;12035;49.978;8.298;2023-04-25T18:49:19;4.43;;;1.20;;
23712;SDS011;12035;49.978;8.298;2023-04-25T18:54:17;5.57;;;1.20;;
23712;SDS011;12035;49.978;8.298;2023-04-25T18:59:15;4.40;;;1.10;;
23712;SDS011;12035;49.978;8.298;2023-04-25T19:04:13;5.88;;;1.08;;
23712;SDS011;12035;49.978;8.298;2023-04-25T19:09:12;5.80;;;1.40;;
23712;SDS011;12035;49.978;8.298;2023-04-25T19:14:09;2.85;;;1.10;;
23712;SDS011;12035;49.978;8.298;2023-04-25T19:19:10;3.13;;;1.20;;
23712;SDS011;12035;49.978;8.298;2023-04-25T19:24:08;5.22;;;1.48;;
23712;SDS011;12035;49.978;8.298;2023-04-25T19:29:06;3.13;;;0.98;;
23712;SDS011;12035;49.978;8.298;2023-04-25T19:34:05;5.28;;;1.40;;
23712;SDS011;12035;49.978;8.298;2023-04-25T19:39:05;3.33;;;1.23;;
23712;SDS011;12035;49.978;8.298;2023-04-25T19:44:04;2.97;;;1.10;;
23712;SDS011;12035;49.978;8.298;2023-04-25T19:49:02;3.60;;;1.00;;
23712;SDS011;12035;49.978;8.298;2023-04-25T19:54:01;3.97;;;1.25;;
23712;SDS011;12035;49.978;8.298;2023-04-25T19:59:00;3.70;;;1.30;;
23712;SDS011;12035;49.978;8.298;2023-04-25T20:03:57;2.80;;;1.10;;
23712;SDS011;12035;49.978;8.298;2023-04-25T20:08:54;4.95;;;1.02;;
23712;SDS011;12035;49.978;8.298;2023-04-25T20:13:51;3.22;;;1.10;;
23712;SDS011;12035;49.978;8.298;2023-04-25T20:18:50;4.68;;;1.10;;
23712;SDS011;12035;49.978;8.298;2023-04-25T20:23:47;3.97;;;1.40;;
23712;SDS011;12035;49.978;8.298;2023-04-25T20:28:45;5.55;;;1.40;;
23712;SDS011;12035;49.978;8.298;2023-04-25T20:33:42;7.00;;;1.38;;
23712;SDS011;12035;49.978;8.298;2023-04-25T20:38:41;4.88;;;1.00;;
23712;SDS011;12035;49.978;8.298;2023-04-25T20:43:38;3.30;;;1.20;;
23712;SDS011;12035;49.978;8.298;2023-04-25T20:48:36;5.65;;;1.38;;
23712;SDS011;12035;49.978;8.298;2023-04-25T20:53:33;3.33;;;1.10;;
23712;SDS011;12035;49.978;8.298;2023-04-25T20:58:32;3.97;;;1.02;;
23712;SDS011;12035;49.978;8.298;2023-04-25T21:03:29;1.50;;;0.75;;
23712;SDS011;12035;49.978;8.298;2023-04-25T21:08:26;3.55;;;1.42;;
23712;SDS011;12035;49.978;8.298;2023-04-25T21:13:23;4.00;;;1.40;;
23712;SDS011;12035;49.978;8.298;2023-04-25T21:18:24;3.08;;;1.00;;
23712;SDS011;12035;49.978;8.298;2023-04-25T21:23:21;3.28;;;1.20;;
23712;SDS011;12035;49.978;8.298;2023-04-25T21:28:19;3.45;;;1.00;;
23712;SDS011;12035;49.978;8.298;2023-04-25T21:33:16;3.20;;;1.17;;
23712;SDS011;12035;49.978;8.298;2023-04-25T21:38:14;4.80;;;1.48;;
23712;SDS011;12035;49.978;8.298;2023-04-25T21:43:11;6.93;;;1.40;;
23712;SDS011;12035;49.978;8.298;2023-04-25T21:48:08;2.90;;;1.00;;
23712;SDS011;12035;49.978;8.298;2023-04-25T21:53:07;5.05;;;1.20;;
23712;SDS011;12035;49.978;8.298;2023-04-25T21:58:08;5.00;;;1.33;;
23712;SDS011;12035;49.978;8.298;2023-04-25T22:03:05;2.95;;;0.98;;
23712;SDS011;12035;49.978;8.298;2023-04-25T22:08:03;3.85;;;1.40;;
23712;SDS011;12035;49.978;8.298;2023-04-25T22:13:00;4.93;;;1.23;;
23712;SDS011;12035;49.978;8.298;2023-04-25T22:17:59;3.03;;;1.10;;
23712;SDS011;12035;49.978;8.298;2023-04-25T22:22:58;3.78;;;1.50;;
23712;SDS011;12035;49.978;8.298;2023-04-25T22:27:55;3.83;;;1.25;;
23712;SDS011;12035;49.978;8.298;2023-04-25T22:32:53;4.75;;;1.42;;
23712;SDS011;12035;49.978;8.298;2023-04-25T22:37:52;3.17;;;1.02;;
23712;SDS011;12035;49.978;8.298;2023-04-25T22:42:49;5.68;;;1.55;;
23712;SDS011;12035;49.978;8.298;2023-04-25T22:47:46;2.97;;;1.20;;
23712;SDS011;12035;49.978;8.298;2023-04-25T22:52:43;6.45;;;1.60;;
23712;SDS011;12035;49.978;8.298;2023-04-25T22:57:43;3.92;;;1.20;;
23712;SDS011;12035;49.978;8.298;2023-04-25T23:02:41;4.30;;;1.10;;
23712;SDS011;12035;49.978;8.298;2023-04-25T23:07:39;1.98;;;1.00;;
23712;SDS011;12035;49.978;8.298;2023-04-25T23:12:38;3.80;;;1.25;;
23712;SDS011;12035;49.978;8.298;2023-04-25T23:17:37;2.67;;;1.10;;
23712;SDS011;12035;49.978;8.298;2023-04-25T23:22:34;3.90;;;1.10;;
23712;SDS011;12035;49.978;8.298;2023-04-25T23:27:32;3.45;;;1.08;;
23712;SDS011;12035;49.978;8.298;2023-04-25T23:32:29;3.63;;;1.10;;
23712;SDS011;12035;49.978;8.298;2023-04-25T23:37:27;4.68;;;1.60;;
23712;SDS011;12035;49.978;8.298;2023-04-25T23:42:25;2.50;;;1.13;;
23712;SDS011;12035;49.978;8.298;2023-04-25T23:47:22;4.20;;;1.58;;
23712;SDS011;12035;49.978;8.298;2023-04-25T23:52:20;3.22;;;1.40;;
23712;SDS011;12035;49.978;8.298;2023-04-25T23:57:19;4.88;;;1.50;;
